sensor_id;sensor_type;location;lat;lon;timestamp;temperature;humidity
42145;DHT22;27813;43.516;11.890;2023-01-10T00:02:33;2.50;94.20
42145;DHT22;27813;43.516;11.890;2023-01-10T00:06:37;2.40;94.30
42145;DHT22;27813;43.516;11.890;2023-01-10T00:10:41;2.40;94.50
42145;DHT22;27813;43.516;11.890;2023-01-10T00:14:45;2.30;94.20
42145;DHT22;27813;43.516;11.890;2023-01-10T00:18:49;2.30;94.50
42145;DHT22;27813;43.516;11.890;2023-01-10T00:22:53;2.20;94.20
42145;DHT22;27813;43.516;11.890;2023-01-10T00:26:57;2.20;94.00
42145;DHT22;27813;43.516;11.890;2023-01-10T05:34:47;-3276.30;92.40
42145;DHT22;27813;43.516;11.890;2023-01-10T05:38:53;-3276.30;92.40
42145;DHT22;27813;43.516;11.890;2023-01-10T05:43:00;-3276.40;92.70
42145;DHT22;27813;43.516;11.890;2023-01-10T05:47:04;-3276.50;92.90
42145;DHT22;27813;43.516;11.890;2023-01-10T05:51:09;-3276.60;93.20
42145;DHT22;27813;43.516;11.890;2023-01-10T05:55:15;-3276.60;93.10
42145;DHT22;27813;43.516;11.890;2023-01-10T05:59:20;-3276.60;92.70
42145;DHT22;27813;43.516;11.890;2023-01-10T06:03:30;-3276.50;93.10
42145;DHT22;27813;43.516;11.890;2023-01-10T06:07:34;-3276.40;93.20
42145;DHT22;27813;43.516;11.890;2023-01-10T06:11:39;-3276.30;93.30
42145;DHT22;27813;43.516;11.890;2023-01-10T06:15:43;-3276.30;93.30
42145;DHT22;27813;43.516;11.890;2023-01-10T06:19:47;-3276.30;93.20
42145;DHT22;27813;43.516;11.890;2023-01-10T06:23:52;-3276.30;93.00
42145;DHT22;27813;43.516;11.890;2023-01-10T06:27:56;-3276.30;92.80
42145;DHT22;27813;43.516;11.890;2023-01-10T06:32:00;-3276.20;92.80
42145;DHT22;27813;43.516;11.890;2023-01-10T06:36:05;-3276.10;92.80
42145;DHT22;27813;43.516;11.890;2023-01-10T06:40:10;-3276.20;92.80
42145;DHT22;27813;43.516;11.890;2023-01-10T06:44:14;-3276.10;92.90
42145;DHT22;27813;43.516;11.890;2023-01-10T06:48:19;-3276.20;93.40
42145;DHT22;27813;43.516;11.890;2023-01-10T06:52:25;-3276.60;94.90
42145;DHT22;27813;43.516;11.890;2023-01-10T06:56:29;0.00;94.40
42145;DHT22;27813;43.516;11.890;2023-01-10T07:00:33;0.00;94.00
42145;DHT22;27813;43.516;11.890;2023-01-10T07:04:37;-3276.70;93.60
42145;DHT22;27813;43.516;11.890;2023-01-10T07:08:44;-3276.60;93.40
42145;DHT22;27813;43.516;11.890;2023-01-10T07:12:49;-3276.50;93.50
42145;DHT22;27813;43.516;11.890;2023-01-10T07:16:53;-3276.50;93.40
42145;DHT22;27813;43.516;11.890;2023-01-10T07:20:57;-3276.40;93.30
42145;DHT22;27813;43.516;11.890;2023-01-10T07:25:01;-3276.40;93.10
42145;DHT22;27813;43.516;11.890;2023-01-10T07:29:06;-3276.40;93.10
42145;DHT22;27813;43.516;11.890;2023-01-10T07:33:10;-3276.40;93.00
42145;DHT22;27813;43.516;11.890;2023-01-10T07:37:14;-3276.40;93.00
42145;DHT22;27813;43.516;11.890;2023-01-10T07:41:18;-3276.40;93.20
42145;DHT22;27813;43.516;11.890;2023-01-10T07:45:22;-3276.40;93.30
42145;DHT22;27813;43.516;11.890;2023-01-10T07:49:27;-3276.50;93.70
42145;DHT22;27813;43.516;11.890;2023-01-10T07:53:31;-3276.60;94.00
42145;DHT22;27813;43.516;11.890;2023-01-10T07:57:35;-3276.70;94.10
42145;DHT22;27813;43.516;11.890;2023-01-10T08:01:40;0.00;94.10
42145;DHT22;27813;43.516;11.890;2023-01-10T08:05:44;0.00;94.20
42145;DHT22;27813;43.516;11.890;2023-01-10T08:09:48;0.10;94.50
42145;DHT22;27813;43.516;11.890;2023-01-10T08:13:53;0.20;94.60
42145;DHT22;27813;43.516;11.890;2023-01-10T08:18:01;0.30;94.70
42145;DHT22;27813;43.516;11.890;2023-01-10T08:22:07;0.30;94.70
42145;DHT22;27813;43.516;11.890;2023-01-10T08:26:12;0.40;94.80
42145;DHT22;27813;43.516;11.890;2023-01-10T08:30:17;0.40;94.90
42145;DHT22;27813;43.516;11.890;2023-01-10T08:34:22;0.50;95.00
42145;DHT22;27813;43.516;11.890;2023-01-10T08:38:26;0.50;95.00
42145;DHT22;27813;43.516;11.890;2023-01-10T08:42:31;0.60;95.20
42145;DHT22;27813;43.516;11.890;2023-01-10T08:46:35;0.70;95.30
42145;DHT22;27813;43.516;11.890;2023-01-10T08:50:40;0.80;95.40
42145;DHT22;27813;43.516;11.890;2023-01-10T08:54:44;0.90;95.60
42145;DHT22;27813;43.516;11.890;2023-01-10T08:58:48;1.00;95.80
42145;DHT22;27813;43.516;11.890;2023-01-10T09:02:52;1.10;95.80
42145;DHT22;27813;43.516;11.890;2023-01-10T09:06:57;1.30;95.70
42145;DHT22;27813;43.516;11.890;2023-01-10T09:11:01;1.40;95.50
42145;DHT22;27813;43.516;11.890;2023-01-10T09:15:06;1.50;95.40
42145;DHT22;27813;43.516;11.890;2023-01-10T09:19:11;1.60;95.40
42145;DHT22;27813;43.516;11.890;2023-01-10T09:23:18;1.70;95.20
42145;DHT22;27813;43.516;11.890;2023-01-10T09:27:24;1.90;95.20
42145;DHT22;27813;43.516;11.890;2023-01-10T09:31:29;2.00;95.00
42145;DHT22;27813;43.516;11.890;2023-01-10T09:35:38;2.10;95.20
42145;DHT22;27813;43.516;11.890;2023-01-10T09:39:43;2.30;95.30
42145;DHT22;27813;43.516;11.890;2023-01-10T09:44:04;2.40;95.20
42145;DHT22;27813;43.516;11.890;2023-01-10T09:48:36;2.40;95.20
42145;DHT22;27813;43.516;11.890;2023-01-10T09:52:45;2.60;95.50
42145;DHT22;27813;43.516;11.890;2023-01-10T09:56:50;2.80;95.80
42145;DHT22;27813;43.516;11.890;2023-01-10T10:00:56;2.90;95.90
42145;DHT22;27813;43.516;11.890;2023-01-10T10:09:05;3.10;96.00
42145;DHT22;27813;43.516;11.890;2023-01-10T10:13:42;3.20;95.90
42145;DHT22;27813;43.516;11.890;2023-01-10T10:18:07;3.20;95.90
42145;DHT22;27813;43.516;11.890;2023-01-10T10:26:33;3.40;96.00
42145;DHT22;27813;43.516;11.890;2023-01-10T10:35:13;3.50;95.90
42145;DHT22;27813;43.516;11.890;2023-01-10T10:39:23;3.60;96.00
42145;DHT22;27813;43.516;11.890;2023-01-10T10:43:32;3.70;95.90
42145;DHT22;27813;43.516;11.890;2023-01-10T10:47:39;3.80;96.00
42145;DHT22;27813;43.516;11.890;2023-01-10T10:51:52;3.90;96.20
42145;DHT22;27813;43.516;11.890;2023-01-10T10:55:56;3.90;96.20
42145;DHT22;27813;43.516;11.890;2023-01-10T11:00:02;4.10;96.10
42145;DHT22;27813;43.516;11.890;2023-01-10T11:04:12;4.20;96.10
42145;DHT22;27813;43.516;11.890;2023-01-10T11:08:18;4.30;96.30
42145;DHT22;27813;43.516;11.890;2023-01-10T11:12:30;4.40;96.10
42145;DHT22;27813;43.516;11.890;2023-01-10T11:16:41;4.50;96.20
42145;DHT22;27813;43.516;11.890;2023-01-10T11:21:06;4.60;96.00
42145;DHT22;27813;43.516;11.890;2023-01-10T11:25:17;4.70;96.20
42145;DHT22;27813;43.516;11.890;2023-01-10T11:29:52;4.80;96.10
42145;DHT22;27813;43.516;11.890;2023-01-10T11:34:02;4.90;96.20
42145;DHT22;27813;43.516;11.890;2023-01-10T11:38:19;5.00;96.20
42145;DHT22;27813;43.516;11.890;2023-01-10T11:42:28;5.10;96.40
42145;DHT22;27813;43.516;11.890;2023-01-10T11:46:33;5.30;96.50
42145;DHT22;27813;43.516;11.890;2023-01-10T11:50:40;5.40;96.50
42145;DHT22;27813;43.516;11.890;2023-01-10T11:54:45;5.50;96.70
42145;DHT22;27813;43.516;11.890;2023-01-10T11:58:49;5.70;96.60
42145;DHT22;27813;43.516;11.890;2023-01-10T12:02:54;5.70;96.60
42145;DHT22;27813;43.516;11.890;2023-01-10T12:07:05;5.90;96.80
42145;DHT22;27813;43.516;11.890;2023-01-10T12:11:29;6.10;96.40
42145;DHT22;27813;43.516;11.890;2023-01-10T12:15:34;6.20;96.00
42145;DHT22;27813;43.516;11.890;2023-01-10T12:19:39;6.30;95.80
42145;DHT22;27813;43.516;11.890;2023-01-10T12:23:44;6.40;96.00
42145;DHT22;27813;43.516;11.890;2023-01-10T12:27:49;6.50;95.80
42145;DHT22;27813;43.516;11.890;2023-01-10T12:31:57;6.60;95.60
42145;DHT22;27813;43.516;11.890;2023-01-10T12:40:37;6.80;95.50
42145;DHT22;27813;43.516;11.890;2023-01-10T12:44:59;7.00;96.10
42145;DHT22;27813;43.516;11.890;2023-01-10T12:53:31;7.60;96.20
42145;DHT22;27813;43.516;11.890;2023-01-10T12:57:38;7.90;96.30
42145;DHT22;27813;43.516;11.890;2023-01-10T13:01:52;8.40;96.40
42145;DHT22;27813;43.516;11.890;2023-01-10T13:05:58;8.90;96.00
42145;DHT22;27813;43.516;11.890;2023-01-10T13:10:03;9.20;95.20
42145;DHT22;27813;43.516;11.890;2023-01-10T13:14:12;9.30;94.80
42145;DHT22;27813;43.516;11.890;2023-01-10T13:18:25;9.30;94.50
42145;DHT22;27813;43.516;11.890;2023-01-10T13:22:34;9.40;94.20
42145;DHT22;27813;43.516;11.890;2023-01-10T13:30:52;9.60;93.80
42145;DHT22;27813;43.516;11.890;2023-01-10T13:35:15;9.70;93.40
42145;DHT22;27813;43.516;11.890;2023-01-10T13:39:35;9.80;93.00
42145;DHT22;27813;43.516;11.890;2023-01-10T13:48:12;10.00;92.40
42145;DHT22;27813;43.516;11.890;2023-01-10T13:52:31;10.00;92.30
42145;DHT22;27813;43.516;11.890;2023-01-10T13:56:40;10.10;92.30
42145;DHT22;27813;43.516;11.890;2023-01-10T14:00:50;10.20;92.10
42145;DHT22;27813;43.516;11.890;2023-01-10T14:05:18;10.30;91.30
42145;DHT22;27813;43.516;11.890;2023-01-10T14:09:31;10.40;90.00
42145;DHT22;27813;43.516;11.890;2023-01-10T14:13:37;10.40;90.10
42145;DHT22;27813;43.516;11.890;2023-01-10T14:17:41;10.40;90.00
42145;DHT22;27813;43.516;11.890;2023-01-10T14:21:45;10.20;90.60
42145;DHT22;27813;43.516;11.890;2023-01-10T14:25:55;10.10;91.00
42145;DHT22;27813;43.516;11.890;2023-01-10T14:30:01;10.00;91.00
42145;DHT22;27813;43.516;11.890;2023-01-10T14:34:09;10.00;90.70
42145;DHT22;27813;43.516;11.890;2023-01-10T14:38:36;10.10;90.70
42145;DHT22;27813;43.516;11.890;2023-01-10T14:42:43;10.00;90.20
42145;DHT22;27813;43.516;11.890;2023-01-10T14:46:51;10.00;89.50
42145;DHT22;27813;43.516;11.890;2023-01-10T14:51:25;10.00;88.60
42145;DHT22;27813;43.516;11.890;2023-01-10T14:55:29;10.00;88.80
42145;DHT22;27813;43.516;11.890;2023-01-10T14:59:34;9.90;89.20
42145;DHT22;27813;43.516;11.890;2023-01-10T15:03:44;9.70;89.70
42145;DHT22;27813;43.516;11.890;2023-01-10T15:07:48;9.40;90.60
42145;DHT22;27813;43.516;11.890;2023-01-10T15:11:54;9.40;90.70
42145;DHT22;27813;43.516;11.890;2023-01-10T15:15:59;9.30;90.60
42145;DHT22;27813;43.516;11.890;2023-01-10T15:20:04;9.20;90.20
42145;DHT22;27813;43.516;11.890;2023-01-10T15:24:31;9.00;90.40
42145;DHT22;27813;43.516;11.890;2023-01-10T15:28:37;9.00;90.60
42145;DHT22;27813;43.516;11.890;2023-01-10T15:32:42;8.90;90.40
42145;DHT22;27813;43.516;11.890;2023-01-10T15:36:52;8.70;90.20
42145;DHT22;27813;43.516;11.890;2023-01-10T15:41:02;8.50;90.20
42145;DHT22;27813;43.516;11.890;2023-01-10T15:45:28;8.40;90.20
42145;DHT22;27813;43.516;11.890;2023-01-10T15:49:33;8.20;90.10
42145;DHT22;27813;43.516;11.890;2023-01-10T16:02:27;7.90;89.40
42145;DHT22;27813;43.516;11.890;2023-01-10T16:06:35;7.90;89.10
42145;DHT22;27813;43.516;11.890;2023-01-10T16:10:39;7.70;89.10
42145;DHT22;27813;43.516;11.890;2023-01-10T16:14:45;7.50;89.00
42145;DHT22;27813;43.516;11.890;2023-01-10T16:18:50;7.20;89.40
42145;DHT22;27813;43.516;11.890;2023-01-10T16:22:54;6.90;89.70
42145;DHT22;27813;43.516;11.890;2023-01-10T16:27:02;6.60;89.70
42145;DHT22;27813;43.516;11.890;2023-01-10T16:31:11;6.50;89.80
42145;DHT22;27813;43.516;11.890;2023-01-10T16:35:19;6.30;89.50
42145;DHT22;27813;43.516;11.890;2023-01-10T16:39:23;6.10;89.50
42145;DHT22;27813;43.516;11.890;2023-01-10T16:43:27;5.90;89.60
42145;DHT22;27813;43.516;11.890;2023-01-10T16:47:32;5.50;89.20
42145;DHT22;27813;43.516;11.890;2023-01-10T16:51:38;5.00;89.50
42145;DHT22;27813;43.516;11.890;2023-01-10T16:55:45;4.70;90.10
42145;DHT22;27813;43.516;11.890;2023-01-10T16:59:49;4.40;90.20
42145;DHT22;27813;43.516;11.890;2023-01-10T17:03:54;4.30;90.40
42145;DHT22;27813;43.516;11.890;2023-01-10T17:07:58;4.20;90.50
42145;DHT22;27813;43.516;11.890;2023-01-10T17:12:13;4.30;90.80
42145;DHT22;27813;43.516;11.890;2023-01-10T17:16:21;4.30;90.40
42145;DHT22;27813;43.516;11.890;2023-01-10T17:20:26;4.00;89.90
42145;DHT22;27813;43.516;11.890;2023-01-10T17:24:31;3.60;89.80
42145;DHT22;27813;43.516;11.890;2023-01-10T17:28:40;3.40;90.20
42145;DHT22;27813;43.516;11.890;2023-01-10T17:32:44;3.10;90.80
42145;DHT22;27813;43.516;11.890;2023-01-10T17:36:48;3.00;90.80
42145;DHT22;27813;43.516;11.890;2023-01-10T17:40:53;2.70;90.20
42145;DHT22;27813;43.516;11.890;2023-01-10T17:44:59;2.40;89.80
42145;DHT22;27813;43.516;11.890;2023-01-10T17:49:03;2.10;89.70
42145;DHT22;27813;43.516;11.890;2023-01-10T17:53:07;1.80;89.80
42145;DHT22;27813;43.516;11.890;2023-01-10T17:57:12;1.60;90.10
42145;DHT22;27813;43.516;11.890;2023-01-10T18:01:21;1.50;90.10
42145;DHT22;27813;43.516;11.890;2023-01-10T18:05:28;1.40;90.20
42145;DHT22;27813;43.516;11.890;2023-01-10T18:09:32;1.40;90.20
42145;DHT22;27813;43.516;11.890;2023-01-10T18:13:36;1.40;90.50
42145;DHT22;27813;43.516;11.890;2023-01-10T18:17:42;1.40;90.70
42145;DHT22;27813;43.516;11.890;2023-01-10T18:21:50;1.30;90.90
42145;DHT22;27813;43.516;11.890;2023-01-10T18:26:04;1.20;91.10
42145;DHT22;27813;43.516;11.890;2023-01-10T18:30:09;1.20;91.20
42145;DHT22;27813;43.516;11.890;2023-01-10T18:34:13;1.00;91.20
42145;DHT22;27813;43.516;11.890;2023-01-10T18:38:18;1.00;90.90
42145;DHT22;27813;43.516;11.890;2023-01-10T18:42:22;0.90;90.70
42145;DHT22;27813;43.516;11.890;2023-01-10T18:46:26;0.70;90.60
42145;DHT22;27813;43.516;11.890;2023-01-10T18:50:31;0.50;90.50
42145;DHT22;27813;43.516;11.890;2023-01-10T18:54:35;0.40;90.70
42145;DHT22;27813;43.516;11.890;2023-01-10T18:58:40;0.40;90.70
42145;DHT22;27813;43.516;11.890;2023-01-10T19:02:45;0.30;90.80
42145;DHT22;27813;43.516;11.890;2023-01-10T19:06:50;0.20;90.70
42145;DHT22;27813;43.516;11.890;2023-01-10T19:11:02;0.10;90.80
42145;DHT22;27813;43.516;11.890;2023-01-10T19:15:17;0.10;90.80
42145;DHT22;27813;43.516;11.890;2023-01-10T19:19:21;0.00;90.70
42145;DHT22;27813;43.516;11.890;2023-01-10T19:23:26;0.00;90.60
42145;DHT22;27813;43.516;11.890;2023-01-10T19:27:30;0.00;91.00
42145;DHT22;27813;43.516;11.890;2023-01-10T19:31:34;0.00;90.90
42145;DHT22;27813;43.516;11.890;2023-01-10T19:35:39;0.00;91.40
42145;DHT22;27813;43.516;11.890;2023-01-10T19:39:43;0.00;92.00
42145;DHT22;27813;43.516;11.890;2023-01-10T19:43:53;0.10;91.90
42145;DHT22;27813;43.516;11.890;2023-01-10T19:47:59;0.10;91.50
42145;DHT22;27813;43.516;11.890;2023-01-10T19:52:04;0.00;91.40
42145;DHT22;27813;43.516;11.890;2023-01-10T19:56:11;0.00;91.40
42145;DHT22;27813;43.516;11.890;2023-01-10T20:00:23;-3276.70;91.80
42145;DHT22;27813;43.516;11.890;2023-01-10T20:04:29;0.00;91.80
42145;DHT22;27813;43.516;11.890;2023-01-10T20:08:34;0.00;91.50
42145;DHT22;27813;43.516;11.890;2023-01-10T20:12:38;0.00;91.30
42145;DHT22;27813;43.516;11.890;2023-01-10T20:16:43;-3276.60;91.40
42145;DHT22;27813;43.516;11.890;2023-01-10T20:20:47;-3276.40;91.50
42145;DHT22;27813;43.516;11.890;2023-01-10T20:24:54;-3276.40;91.60
42145;DHT22;27813;43.516;11.890;2023-01-10T20:29:02;-3276.40;91.70
42145;DHT22;27813;43.516;11.890;2023-01-10T20:33:10;-3276.40;92.10
42145;DHT22;27813;43.516;11.890;2023-01-10T20:37:15;-3276.50;92.30
42145;DHT22;27813;43.516;11.890;2023-01-10T20:41:26;-3276.50;92.20
42145;DHT22;27813;43.516;11.890;2023-01-10T20:45:35;-3276.50;92.20
42145;DHT22;27813;43.516;11.890;2023-01-10T20:49:40;-3276.40;92.00
42145;DHT22;27813;43.516;11.890;2023-01-10T20:53:48;-3276.30;92.10
42145;DHT22;27813;43.516;11.890;2023-01-10T20:57:54;-3276.30;92.20
42145;DHT22;27813;43.516;11.890;2023-01-10T21:01:59;-3276.30;92.50
42145;DHT22;27813;43.516;11.890;2023-01-10T21:06:05;-3276.30;92.20
42145;DHT22;27813;43.516;11.890;2023-01-10T21:10:11;-3276.30;92.30
42145;DHT22;27813;43.516;11.890;2023-01-10T21:14:16;-3276.30;92.60
42145;DHT22;27813;43.516;11.890;2023-01-10T21:18:21;-3276.30;92.60
42145;DHT22;27813;43.516;11.890;2023-01-10T21:22:27;-3276.20;92.50
42145;DHT22;27813;43.516;11.890;2023-01-10T21:26:32;-3276.10;92.00
42145;DHT22;27813;43.516;11.890;2023-01-10T21:30:39;-3275.80;91.50
42145;DHT22;27813;43.516;11.890;2023-01-10T21:34:43;-3275.70;91.30
42145;DHT22;27813;43.516;11.890;2023-01-10T21:38:49;-3275.60;91.30
42145;DHT22;27813;43.516;11.890;2023-01-10T21:42:55;-3275.50;91.20
42145;DHT22;27813;43.516;11.890;2023-01-10T21:47:01;-3275.40;91.40
42145;DHT22;27813;43.516;11.890;2023-01-10T21:51:06;-3275.30;91.60
42145;DHT22;27813;43.516;11.890;2023-01-10T21:55:13;-3275.40;91.90
42145;DHT22;27813;43.516;11.890;2023-01-10T21:59:23;-3275.40;92.10
42145;DHT22;27813;43.516;11.890;2023-01-10T22:03:28;-3275.60;92.40
42145;DHT22;27813;43.516;11.890;2023-01-10T22:07:36;-3275.60;92.20
42145;DHT22;27813;43.516;11.890;2023-01-10T22:11:44;-3275.60;92.00
42145;DHT22;27813;43.516;11.890;2023-01-10T22:16:04;-3275.50;92.10
42145;DHT22;27813;43.516;11.890;2023-01-10T22:20:31;-3275.50;92.30
42145;DHT22;27813;43.516;11.890;2023-01-10T22:24:37;-3275.50;92.20
42145;DHT22;27813;43.516;11.890;2023-01-10T22:28:45;-3275.40;91.90
42145;DHT22;27813;43.516;11.890;2023-01-10T22:32:54;-3275.30;91.70
42145;DHT22;27813;43.516;11.890;2023-01-10T22:36:59;-3275.20;91.60
42145;DHT22;27813;43.516;11.890;2023-01-10T22:41:08;-3275.20;91.90
42145;DHT22;27813;43.516;11.890;2023-01-10T22:45:13;-3275.20;92.00
42145;DHT22;27813;43.516;11.890;2023-01-10T22:49:17;-3275.10;92.20
42145;DHT22;27813;43.516;11.890;2023-01-10T22:53:22;-3275.10;92.50
42145;DHT22;27813;43.516;11.890;2023-01-10T22:57:26;-3275.20;92.20
42145;DHT22;27813;43.516;11.890;2023-01-10T23:01:33;-3275.10;92.10
42145;DHT22;27813;43.516;11.890;2023-01-10T23:05:37;-3275.10;91.90
42145;DHT22;27813;43.516;11.890;2023-01-10T23:09:41;-3275.00;92.00
42145;DHT22;27813;43.516;11.890;2023-01-10T23:13:46;-3275.00;92.30
42145;DHT22;27813;43.516;11.890;2023-01-10T23:17:51;-3275.10;93.00
42145;DHT22;27813;43.516;11.890;2023-01-10T23:21:55;-3275.30;92.90
42145;DHT22;27813;43.516;11.890;2023-01-10T23:26:04;-3275.30;92.30
42145;DHT22;27813;43.516;11.890;2023-01-10T23:30:09;-3275.30;92.10
42145;DHT22;27813;43.516;11.890;2023-01-10T23:34:14;-3275.20;91.70
42145;DHT22;27813;43.516;11.890;2023-01-10T23:38:19;-3275.10;91.40
42145;DHT22;27813;43.516;11.890;2023-01-10T23:42:23;-3275.00;91.40
42145;DHT22;27813;43.516;11.890;2023-01-10T23:46:27;-3275.10;91.50
42145;DHT22;27813;43.516;11.890;2023-01-10T23:50:31;-3275.10;91.60
42145;DHT22;27813;43.516;11.890;2023-01-10T23:54:37;-3275.10;91.80
42145;DHT22;27813;43.516;11.890;2023-01-10T23:58:41;-3275.20;91.70
